Other Surface Observations
Issued by NWS Great Falls, MT

Home | Current Version | Previous Version | Text Only | Print | Product List | Glossary On
Versions: 1 2 3 4 5 6 7 8 9 10 11 12 13 14 15 16 17 18 19 20 21 22 23 24 25 26 27 28 29 30 31 32 33 34 35 36 37 38 39 40 41 42 43 44 45 46 47 48 49 50
000
SXUS55 KTFX 191644
OSOTFX
AREA AWOS OBSERVATIONS
NATIONAL WEATHER SERVICE GREAT FALLS MT
1044 AM MDT MON AUG 19 2019

METAR KPO1 191645Z AUTO 14005KT 10SM 25/12 A2980 RMK POPLAR
METAR K1S3 191645Z AUTO 24007KT 10SM 23/12 A2986 RMK FORSYTH
METAR KS71 191645Z AUTO 25006KT 10SM 23/11 A2983 RMK CHINOOK
METAR K38S 191645Z AUTO 00000KT 10SM 21/08 A3003 RMK DEER LODGE
METAR K3U3 191645Z AUTO 19008KT 10SM 25/04 A3002 RMK ANACONDA


USA.gov is the U.S. government's official web portal to all federal, state and local government web resources and services.